Latest Weather Observations for Newcastle Nobbys

IDN60901

Issued at 7:25 pm EST Tuesday 16 September 2014 (issued every 10 minutes, with the page automatically refreshed every 10 minutes)

About weather observations | Map of Sydney area stations | Latest observations for Sydney area | Other Formats
Station Details ID: 061055 Name: NEWCASTLE NOBBYS SIGNAL STATION AWS Lat: -32.92 Lon: 151.80 Height: 33.0 m
Data from the previous 72 hours. | See also: Recent months at Newcastle Nobbys
Date/Time
EST
Tmp

°C
App
Tmp
°C
Dew
Point
°C
Rel
Hum
%
Delta-T

°C
Wind Press
QNH
hPa
Press
MSL
hPa
Rain
since
9 am
mm
Dir
 
Spd
km/h
Gust
km/h
Spd
kts
Gust
kts
16/07:00pm 21.4 15.3 4.9 34 8.1 WNW 26 33 14 18 - - -
16/06:30pm 22.1 17.3 5.5 34 8.3 WNW 20 32 11 17 - - -
16/06:00pm 22.6 17.4 5.5 33 8.6 WNW 22 30 12 16 - - -
16/05:30pm 23.1 18.2 5.1 31 9.0 NW 20 30 11 16 - - -
16/05:00pm 24.3 17.5 5.1 29 9.7 WNW 30 44 16 24 - - -
16/04:30pm 24.9 18.6 3.5 25 10.5 WNW 26 35 14 19 - - -
16/04:00pm 25.3 18.5 5.0 27 10.3 NW 30 41 16 22 - - -
16/03:44pm 25.3 17.3 5.5 28 10.1 WNW 37 57 20 31 - - -
16/03:30pm 25.5 18.5 6.2 29 10.0 WNW 32 43 17 23 - - -
16/03:03pm 25.6 19.7 7.7 32 9.5 NW 28 46 15 25 - - -
16/03:00pm 25.7 20.6 9.1 35 9.1 NW 26 41 14 22 - - -
16/02:30pm 21.9 22.6 16.2 70 3.4 NNE 7 24 4 13 - - 0.0
16/02:00pm 21.6 20.3 16.8 74 2.9 E 19 22 10 12 - - 0.0
16/01:30pm 21.7 21.5 16.6 73 3.1 E 13 19 7 10 - - 0.0
16/01:00pm 21.1 20.7 16.3 74 2.9 ESE 13 15 7 8 - - 0.0
16/12:30pm 20.7 20.9 14.6 68 3.6 SE 7 9 4 5 - - 0.0
16/12:00pm 20.9 22.3 14.5 67 3.7 CALM 0 4 0 2 - - 0.0
16/11:30am 21.0 21.6 14.2 65 4.0 E 4 6 2 3 - - 0.0
16/11:00am 20.1 19.4 14.2 69 3.4 NE 11 15 6 8 - - 0.0
16/10:30am 19.0 19.0 14.1 73 2.8 NE 7 15 4 8 - - 0.0
16/10:00am 18.7 18.7 14.2 75 2.6 NNE 7 11 4 6 - - 0.0
16/09:30am 19.3 18.1 13.9 71 3.1 ENE 13 17 7 9 - - 0.0
16/09:00am 18.9 17.2 13.7 72 3.0 NE 15 20 8 11 - - 0.0
16/08:30am 18.8 17.3 14.3 75 2.6 ENE 15 20 8 11 - - 0.0
16/08:00am 17.9 15.6 14.0 78 2.2 ENE 19 22 10 12 - - 0.0
16/07:30am 16.8 15.3 14.1 84 1.5 ENE 15 20 8 11 - - 0.0
16/07:00am 16.4 15.2 14.1 86 1.3 ESE 13 17 7 9 - - 0.0
16/06:30am 16.2 16.7 13.9 86 1.3 WSW 4 7 2 4 - - 0.0
16/06:00am 16.1 16.0 13.8 86 1.3 NW 7 9 4 5 - - 0.0
16/05:30am 16.8 15.0 14.4 86 1.4 NE 17 24 9 13 - - 0.0
16/05:00am 16.9 14.4 14.2 84 1.5 NE 20 30 11 16 - - 0.0
16/04:30am 17.0 14.3 14.5 85 1.4 NE 22 32 12 17 - - 0.0
16/04:00am 17.1 14.0 14.4 84 1.5 NE 24 32 13 17 - - 0.0
16/03:30am 17.0 13.4 14.3 84 1.5 NE 26 33 14 18 - - 0.0
16/03:00am 16.9 13.7 14.2 84 1.5 NE 24 32 13 17 - - 0.0
16/02:30am 17.0 13.0 14.1 83 1.7 ENE 28 33 15 18 - - 0.0
16/02:00am 16.8 13.4 13.7 82 1.8 ENE 24 33 13 18 - - 0.0
16/01:30am 16.8 16.8 13.5 81 1.9 NNE 6 15 3 8 - - 0.0
16/01:00am 16.8 15.0 13.3 80 2.0 NE 15 20 8 11 - - 0.0
16/12:30am 16.7 14.0 13.4 81 1.9 NE 20 26 11 14 - - 0.0
16/12:00am 16.7 14.5 13.4 81 1.9 NE 17 24 9 13 - - 0.0
 
Date/Time
EST
Tmp

°C
App
Tmp
°C
Dew
Point
°C
Rel
Hum
%
Delta-T

°C
Wind Press
QNH
hPa
Press
MSL
hPa
Rain
since
9 am
mm
Dir
 
Spd
km/h
Gust
km/h
Spd
kts
Gust
kts
15/11:30pm 16.8 14.1 13.5 81 1.9 NE 20 24 11 13 - - 0.0
15/11:00pm 16.8 13.5 12.9 78 2.2 NE 22 28 12 15 - - 0.0
15/10:30pm 16.8 13.4 12.5 76 2.4 NE 22 28 12 15 - - 0.0
15/10:00pm 17.1 14.4 13.0 77 2.3 NE 19 24 10 13 - - 0.0
15/09:30pm 17.1 14.9 13.4 79 2.1 NE 17 24 9 13 - - 0.0
15/09:00pm 17.0 14.2 12.7 76 2.4 NE 19 24 10 13 - - 0.0
15/08:30pm 17.1 14.7 12.8 76 2.4 NE 17 22 9 12 - - 0.0
15/08:00pm 17.5 14.7 13.2 76 2.4 NE 20 26 11 14 - - 0.0
15/07:30pm 17.5 14.1 12.6 73 2.7 NE 22 30 12 16 - - 0.0
15/07:00pm 17.5 14.0 12.2 71 2.9 ENE 22 26 12 14 - - 0.0
15/06:30pm 17.5 14.6 12.2 71 2.9 ENE 19 24 10 13 - - 0.0
15/06:00pm 17.7 14.9 12.6 72 2.8 E 19 24 10 13 - - 0.0
15/05:30pm 17.7 14.5 11.9 69 3.2 E 20 26 11 14 - - 0.0
15/05:00pm 18.0 14.5 12.2 69 3.2 E 22 26 12 14 - - 0.0
15/04:30pm 18.3 15.2 12.1 67 3.4 E 20 26 11 14 - - 0.0
15/04:00pm 18.5 14.9 12.0 66 3.6 E 22 26 12 14 - - 0.0
15/03:30pm 18.8 15.4 12.5 67 3.5 E 22 26 12 14 - - 0.0
15/03:00pm 19.1 15.7 12.6 66 3.6 E 22 24 12 13 - - 0.0
15/02:30pm 19.1 16.1 12.4 65 3.7 E 20 22 11 12 - - 0.0
15/02:00pm 19.2 16.4 12.7 66 3.7 E 19 22 10 12 - - 0.0
15/01:30pm 18.9 16.5 13.7 72 3.0 ESE 19 20 10 11 - - 0.0
15/01:00pm 18.8 16.3 13.6 72 3.0 SE 19 20 10 11 - - 0.0
15/12:30pm 18.8 16.9 14.1 74 2.7 SE 17 20 9 11 - - 0.0
15/12:00pm 19.1 17.6 14.1 73 2.9 SE 15 19 8 10 - - 0.0
15/11:30am 19.0 17.8 14.1 73 2.8 SE 13 15 7 8 - - 0.0
15/11:00am 19.1 18.3 14.1 73 2.9 SSE 11 13 6 7 - - 0.0
15/10:30am 18.9 18.0 13.7 72 3.0 SSE 11 13 6 7 - - 0.0
15/10:00am 19.3 19.3 13.7 70 3.2 SSE 6 7 3 4 - - 0.0
15/09:30am 19.1 19.2 13.9 72 3.0 SSE 6 7 3 4 - - 0.0
15/09:00am 18.3 18.2 13.4 73 2.8 SSW 6 11 3 6 - - 0.0
15/08:30am 17.7 17.3 13.0 74 2.6 SW 7 9 4 5 - - 0.0
15/08:00am 16.5 17.0 12.8 79 2.1 WNW 2 4 1 2 - - 0.0
15/07:30am 15.7 15.3 13.0 84 1.5 WNW 7 9 4 5 - - 0.0
15/07:00am 14.5 13.7 12.9 90 0.9 NW 9 11 5 6 - - 0.0
15/06:30am 14.2 13.4 12.8 91 0.8 WNW 9 11 5 6 - - 0.0
15/06:00am 14.5 14.1 12.9 90 0.9 WNW 7 9 4 5 - - 0.0
15/05:30am 14.8 14.5 12.8 88 1.1 NNW 6 9 3 5 - - 0.0
15/05:00am 15.2 14.8 12.9 86 1.3 WSW 7 13 4 7 - - 0.0
15/04:30am 15.2 14.0 12.9 86 1.3 WSW 11 17 6 9 - - 0.0
15/04:00am 15.5 13.6 13.0 85 1.4 SW 15 20 8 11 - - 0.0
15/03:30am 15.6 12.8 13.1 85 1.4 SW 20 26 11 14 - - 0.0
15/03:00am 15.9 13.8 13.6 86 1.3 SW 17 22 9 12 - - 0.0
15/02:30am 16.1 14.4 13.6 85 1.4 SW 15 19 8 10 - - 0.0
15/02:00am 16.4 15.0 13.3 82 1.7 SW 13 19 7 10 - - 0.0
15/01:30am 17.3 14.3 13.8 80 2.0 SSW 22 30 12 16 - - 0.0
15/01:00am 17.6 13.8 13.5 77 2.3 SSW 26 33 14 18 - - 0.0
15/12:30am 17.6 13.6 14.1 80 2.0 S 28 33 15 18 - - 0.0
15/12:00am 17.6 13.6 14.1 80 2.0 S 28 33 15 18 - - 0.0
 
Date/Time
EST
Tmp

°C
App
Tmp
°C
Dew
Point
°C
Rel
Hum
%
Delta-T

°C
Wind Press
QNH
hPa
Press
MSL
hPa
Rain
since
9 am
mm
Dir
 
Spd
km/h
Gust
km/h
Spd
kts
Gust
kts
14/11:30pm 17.7 13.2 14.8 83 1.7 S 32 37 17 20 - - 0.0
14/11:00pm 17.9 14.1 15.7 87 1.3 S 30 35 16 19 - - 0.0
14/10:30pm 17.9 13.9 15.3 85 1.5 S 30 35 16 19 - - 0.0
14/10:00pm 17.6 15.8 15.6 88 1.2 SSW 19 32 10 17 - - 0.0
14/09:30pm 18.6 17.2 15.5 82 1.8 SSW 17 22 9 12 - - 0.0
14/09:00pm 18.5 17.7 15.2 81 1.9 SE 13 15 7 8 - - 0.0
14/08:30pm 18.6 17.5 15.3 81 1.9 SE 15 15 8 8 - - 0.0
14/08:00pm 18.7 16.8 15.2 80 2.1 ESE 19 22 10 12 - - 0.0
14/07:30pm 18.7 16.7 15.0 79 2.2 SE 19 22 10 12 - - 0.0
14/07:00pm 18.6 15.6 15.8 84 1.7 SE 26 28 14 15 - - 0.0
14/06:30pm 18.6 18.2 15.1 80 2.0 E 11 13 6 7 - - 0.0
14/06:00pm 18.8 16.5 15.7 82 1.8 NE 22 28 12 15 - - 0.0
14/05:30pm 18.7 16.7 15.4 81 1.9 ENE 20 26 11 14 - - 0.0
14/05:00pm 18.9 16.2 15.6 81 2.0 ENE 24 28 13 15 - - 0.0
14/04:30pm 19.3 16.9 15.4 78 2.3 E 22 30 12 16 - - 0.0
14/04:00pm 21.2 20.4 14.1 64 4.1 S 11 26 6 14 - - 0.0
14/03:30pm 25.1 22.5 9.4 37 8.6 NW 13 24 7 13 - - 0.0
14/03:00pm 25.0 22.7 10.5 40 8.1 NW 13 17 7 9 - - 0.0
14/02:30pm 24.5 20.9 10.0 40 8.0 NW 19 26 10 14 - - 0.0
14/02:00pm 24.3 20.7 9.8 40 7.9 WNW 19 30 10 16 - - 0.0
14/01:30pm 23.9 20.1 11.3 45 7.1 WNW 22 30 12 16 - - 0.0
14/01:00pm 23.5 20.4 12.2 49 6.4 NW 20 26 11 14 - - 0.0
14/12:30pm 22.0 17.8 12.5 54 5.4 NNW 26 33 14 18 - - 0.0
14/12:00pm 20.9 16.8 12.6 59 4.7 NNW 26 33 14 18 - - 0.0
14/11:30am 20.5 17.3 13.0 62 4.3 NNW 22 32 12 17 - - 0.0
14/11:00am 19.6 17.6 12.8 65 3.8 NNW 15 20 8 11 - - 0.0
14/10:30am 18.6 17.4 13.9 74 2.7 NNW 13 17 7 9 - - 0.0
14/10:00am 16.8 15.4 13.5 81 1.9 NNW 13 19 7 10 - - 0.0
14/09:30am 15.8 13.5 13.1 84 1.5 NNW 17 20 9 11 - - 0.0
14/09:00am 15.4 13.5 12.9 85 1.4 NNW 15 19 8 10 - - 0.0
14/08:30am 13.9 11.5 12.6 92 0.7 NW 17 22 9 12 - - 0.0
14/08:00am 13.2 11.0 12.1 93 0.6 NNW 15 19 8 10 - - 0.0
14/07:30am 12.7 10.3 11.4 92 0.7 NNW 15 17 8 9 - - 0.0
14/07:00am 12.6 11.8 11.7 94 0.5 NNW 7 9 4 5 - - 0.0
14/06:30am 12.3 11.6 11.5 95 0.4 WNW 6 7 3 4 - - 0.0
14/06:00am 12.3 11.0 11.4 94 0.5 NW 9 11 5 6 - - 0.0
14/05:30am 13.7 13.3 12.4 92 0.7 NNW 6 11 3 6 - - 0.0
14/05:00am 13.8 13.4 12.5 92 0.7 WNW 6 6 3 3 - - 0.0
14/04:30am 14.0 14.1 12.6 91 0.8 WNW 4 6 2 3 - - 0.0
14/04:00am 14.3 14.4 12.7 90 0.9 WNW 4 6 2 3 - - 0.0
14/03:30am 14.6 14.7 12.6 88 1.1 NNW 4 6 2 3 - - 0.0
14/03:00am 14.6 14.1 12.5 87 1.1 N 7 9 4 5 - - 0.0
14/02:30am 14.8 14.4 12.5 86 1.3 NNW 6 7 3 4 - - 0.0
14/02:00am 15.4 14.5 12.7 84 1.5 NNE 9 13 5 7 - - 0.0
14/01:30am 15.7 14.9 13.0 84 1.5 NNE 9 11 5 6 - - 0.0
14/01:00am 15.8 15.0 12.9 83 1.6 NE 9 13 5 7 - - 0.0
14/12:30am 15.9 15.6 13.4 85 1.4 NE 7 11 4 6 - - 0.0
14/12:00am 15.6 14.8 12.9 84 1.5 NNE 9 13 5 7 - - 0.0
 
Date/Time
EST
Tmp

°C
App
Tmp
°C
Dew
Point
°C
Rel
Hum
%
Delta-T

°C
Wind Press
QNH
hPa
Press
MSL
hPa
Rain
since
9 am
mm
Dir
 
Spd
km/h
Gust
km/h
Spd
kts
Gust
kts
13/11:30pm 15.6 15.5 13.4 87 1.2 NNE 6 9 3 5 - - 0.0
13/11:00pm 15.6 15.3 13.3 86 1.3 N 7 9 4 5 - - 0.0
13/10:30pm 16.1 14.6 13.2 83 1.6 NNE 13 17 7 9 - - 0.0
13/10:00pm 16.3 15.4 13.6 84 1.5 NE 11 17 6 9 - - 0.0
13/09:30pm 16.3 14.5 13.4 83 1.6 NE 15 20 8 11 - - 0.0
13/09:00pm 16.4 14.9 13.1 81 1.8 NE 13 19 7 10 - - 0.0
13/08:30pm 16.8 15.1 13.5 81 1.9 NE 15 24 8 13 - - 0.0
13/08:00pm 16.9 14.7 13.4 80 2.0 NE 17 24 9 13 - - 0.0
13/07:30pm 17.1 14.4 13.6 80 2.0 NE 20 28 11 15 - - 0.0

Latest Capital City Observations: Canberra | Sydney | Melbourne | Brisbane | Adelaide | Perth | Hobart | Darwin

Other Formats:

Comma delimited format used in spreadsheet applications
http://www.bom.gov.au/fwo/IDN60901/IDN60901.94774.axf

JavaScript Object Notation format (JSON) in row-major order
http://www.bom.gov.au/fwo/IDN60901/IDN60901.94774.json